sensor_id;sensor_type;location;lat;lon;timestamp;temperature;humidity
12309;DHT22;6217;48.150;17.142;2022-12-18T00:01:26;0.20;91.90
12309;DHT22;6217;48.150;17.142;2022-12-18T00:05:32;0.20;92.00
12309;DHT22;6217;48.150;17.142;2022-12-18T00:09:38;0.20;92.00
12309;DHT22;6217;48.150;17.142;2022-12-18T00:13:44;0.30;92.00
12309;DHT22;6217;48.150;17.142;2022-12-18T00:17:50;0.30;92.00
12309;DHT22;6217;48.150;17.142;2022-12-18T00:21:56;0.30;91.80
12309;DHT22;6217;48.150;17.142;2022-12-18T00:26:06;0.20;91.90
12309;DHT22;6217;48.150;17.142;2022-12-18T00:30:15;0.20;91.80
12309;DHT22;6217;48.150;17.142;2022-12-18T00:34:21;0.10;91.80
12309;DHT22;6217;48.150;17.142;2022-12-18T00:38:27;0.10;91.80
12309;DHT22;6217;48.150;17.142;2022-12-18T00:42:32;0.10;91.80
12309;DHT22;6217;48.150;17.142;2022-12-18T00:46:57;0.10;92.00
12309;DHT22;6217;48.150;17.142;2022-12-18T00:51:02;0.10;92.00
12309;DHT22;6217;48.150;17.142;2022-12-18T00:55:09;0.10;92.00
12309;DHT22;6217;48.150;17.142;2022-12-18T00:59:16;0.00;92.00
12309;DHT22;6217;48.150;17.142;2022-12-18T01:03:21;0.00;92.00
12309;DHT22;6217;48.150;17.142;2022-12-18T01:07:27;0.00;92.00
12309;DHT22;6217;48.150;17.142;2022-12-18T01:11:33;0.10;91.90
12309;DHT22;6217;48.150;17.142;2022-12-18T01:15:39;0.10;91.90
12309;DHT22;6217;48.150;17.142;2022-12-18T01:19:45;0.10;92.00
12309;DHT22;6217;48.150;17.142;2022-12-18T01:23:53;0.10;92.00
12309;DHT22;6217;48.150;17.142;2022-12-18T01:27:59;0.10;91.90
12309;DHT22;6217;48.150;17.142;2022-12-18T01:32:05;0.10;91.90
12309;DHT22;6217;48.150;17.142;2022-12-18T01:36:21;0.10;91.90
12309;DHT22;6217;48.150;17.142;2022-12-18T01:40:27;0.00;91.90
12309;DHT22;6217;48.150;17.142;2022-12-18T01:49:06;0.00;92.00
12309;DHT22;6217;48.150;17.142;2022-12-18T01:53:16;0.10;91.90
12309;DHT22;6217;48.150;17.142;2022-12-18T01:57:23;0.10;91.90
12309;DHT22;6217;48.150;17.142;2022-12-18T02:01:30;0.10;91.90
12309;DHT22;6217;48.150;17.142;2022-12-18T02:06:15;0.10;91.80
12309;DHT22;6217;48.150;17.142;2022-12-18T02:10:46;0.00;91.80
12309;DHT22;6217;48.150;17.142;2022-12-18T02:15:02;0.00;91.80
12309;DHT22;6217;48.150;17.142;2022-12-18T02:24:18;-0.10;92.00
12309;DHT22;6217;48.150;17.142;2022-12-18T02:28:33;0.00;91.90
12309;DHT22;6217;48.150;17.142;2022-12-18T02:32:47;0.00;91.80
12309;DHT22;6217;48.150;17.142;2022-12-18T02:36:56;0.00;91.80
12309;DHT22;6217;48.150;17.142;2022-12-18T02:41:04;0.00;91.70
12309;DHT22;6217;48.150;17.142;2022-12-18T02:45:10;-0.10;91.80
12309;DHT22;6217;48.150;17.142;2022-12-18T02:53:37;-0.10;91.70
12309;DHT22;6217;48.150;17.142;2022-12-18T02:57:50;-0.10;91.80
12309;DHT22;6217;48.150;17.142;2022-12-18T03:02:23;-0.10;91.80
12309;DHT22;6217;48.150;17.142;2022-12-18T03:06:42;-0.20;91.80
12309;DHT22;6217;48.150;17.142;2022-12-18T03:11:10;-0.20;91.80
12309;DHT22;6217;48.150;17.142;2022-12-18T03:15:24;-0.30;91.90
12309;DHT22;6217;48.150;17.142;2022-12-18T03:19:40;-0.30;91.80
12309;DHT22;6217;48.150;17.142;2022-12-18T03:23:50;-0.40;92.00
12309;DHT22;6217;48.150;17.142;2022-12-18T03:27:59;-0.40;92.00
12309;DHT22;6217;48.150;17.142;2022-12-18T03:32:09;-0.30;92.00
12309;DHT22;6217;48.150;17.142;2022-12-18T03:36:17;-0.30;92.00
12309;DHT22;6217;48.150;17.142;2022-12-18T03:40:29;-0.30;92.00
12309;DHT22;6217;48.150;17.142;2022-12-18T03:44:45;-0.30;91.90
12309;DHT22;6217;48.150;17.142;2022-12-18T03:49:30;-0.30;91.90
12309;DHT22;6217;48.150;17.142;2022-12-18T03:54:00;-0.30;91.90
12309;DHT22;6217;48.150;17.142;2022-12-18T03:58:14;-0.40;92.00
12309;DHT22;6217;48.150;17.142;2022-12-18T04:02:32;-0.40;91.90
12309;DHT22;6217;48.150;17.142;2022-12-18T04:06:41;-0.40;92.00
12309;DHT22;6217;48.150;17.142;2022-12-18T04:10:51;-0.40;92.00
12309;DHT22;6217;48.150;17.142;2022-12-18T04:14:57;-0.40;92.00
12309;DHT22;6217;48.150;17.142;2022-12-18T04:19:04;-0.40;92.00
12309;DHT22;6217;48.150;17.142;2022-12-18T04:23:15;-0.50;92.10
12309;DHT22;6217;48.150;17.142;2022-12-18T04:27:21;-0.60;92.20
12309;DHT22;6217;48.150;17.142;2022-12-18T04:31:29;-0.70;92.30
12309;DHT22;6217;48.150;17.142;2022-12-18T04:35:36;-0.70;92.40
12309;DHT22;6217;48.150;17.142;2022-12-18T04:39:41;-0.60;92.30
12309;DHT22;6217;48.150;17.142;2022-12-18T04:43:54;-0.60;92.10
12309;DHT22;6217;48.150;17.142;2022-12-18T04:48:01;-0.60;92.60
12309;DHT22;6217;48.150;17.142;2022-12-18T04:52:07;-0.60;92.20
12309;DHT22;6217;48.150;17.142;2022-12-18T04:56:15;-0.60;92.30
12309;DHT22;6217;48.150;17.142;2022-12-18T05:00:21;-0.60;92.10
12309;DHT22;6217;48.150;17.142;2022-12-18T05:04:27;-0.70;92.20
12309;DHT22;6217;48.150;17.142;2022-12-18T05:08:33;-0.70;92.30
12309;DHT22;6217;48.150;17.142;2022-12-18T05:12:38;-0.80;92.30
12309;DHT22;6217;48.150;17.142;2022-12-18T05:17:03;-0.80;92.40
12309;DHT22;6217;48.150;17.142;2022-12-18T05:21:09;-0.80;92.40
12309;DHT22;6217;48.150;17.142;2022-12-18T05:25:14;-0.70;92.30
12309;DHT22;6217;48.150;17.142;2022-12-18T05:29:20;-0.90;92.40
12309;DHT22;6217;48.150;17.142;2022-12-18T05:33:29;-0.90;92.50
12309;DHT22;6217;48.150;17.142;2022-12-18T05:37:35;-0.90;92.30
12309;DHT22;6217;48.150;17.142;2022-12-18T05:41:41;-1.00;92.40
12309;DHT22;6217;48.150;17.142;2022-12-18T05:45:47;-1.10;92.40
12309;DHT22;6217;48.150;17.142;2022-12-18T05:49:52;-1.20;92.70
12309;DHT22;6217;48.150;17.142;2022-12-18T05:53:58;-1.10;92.60
12309;DHT22;6217;48.150;17.142;2022-12-18T05:58:06;-1.10;92.60
12309;DHT22;6217;48.150;17.142;2022-12-18T06:02:12;-1.10;92.50
12309;DHT22;6217;48.150;17.142;2022-12-18T06:06:20;-0.90;92.40
12309;DHT22;6217;48.150;17.142;2022-12-18T06:10:27;-1.20;92.20
12309;DHT22;6217;48.150;17.142;2022-12-18T06:14:33;-1.20;92.50
12309;DHT22;6217;48.150;17.142;2022-12-18T06:18:39;-1.20;92.50
12309;DHT22;6217;48.150;17.142;2022-12-18T06:22:44;-1.20;92.30
12309;DHT22;6217;48.150;17.142;2022-12-18T06:26:50;-1.20;92.40
12309;DHT22;6217;48.150;17.142;2022-12-18T06:30:56;-1.30;92.30
12309;DHT22;6217;48.150;17.142;2022-12-18T06:35:02;-1.40;92.20
12309;DHT22;6217;48.150;17.142;2022-12-18T06:39:08;-1.60;92.30
12309;DHT22;6217;48.150;17.142;2022-12-18T06:43:13;-1.50;92.80
12309;DHT22;6217;48.150;17.142;2022-12-18T06:47:19;-1.40;92.60
12309;DHT22;6217;48.150;17.142;2022-12-18T06:51:25;-1.30;92.50
12309;DHT22;6217;48.150;17.142;2022-12-18T06:55:31;-1.30;92.40
12309;DHT22;6217;48.150;17.142;2022-12-18T06:59:37;-1.30;92.50
12309;DHT22;6217;48.150;17.142;2022-12-18T07:03:43;-1.30;92.60
12309;DHT22;6217;48.150;17.142;2022-12-18T07:07:48;-1.30;92.40
12309;DHT22;6217;48.150;17.142;2022-12-18T07:11:54;-1.30;92.50
12309;DHT22;6217;48.150;17.142;2022-12-18T07:16:08;-1.30;92.80
12309;DHT22;6217;48.150;17.142;2022-12-18T07:20:14;-1.20;92.80
12309;DHT22;6217;48.150;17.142;2022-12-18T07:24:20;-1.10;92.50
12309;DHT22;6217;48.150;17.142;2022-12-18T07:28:25;-1.00;92.40
12309;DHT22;6217;48.150;17.142;2022-12-18T07:32:31;-1.00;92.60
12309;DHT22;6217;48.150;17.142;2022-12-18T07:36:37;-0.90;92.40
12309;DHT22;6217;48.150;17.142;2022-12-18T07:40:43;-0.80;92.70
12309;DHT22;6217;48.150;17.142;2022-12-18T07:44:48;-0.70;92.50
12309;DHT22;6217;48.150;17.142;2022-12-18T07:48:54;-0.80;92.50
12309;DHT22;6217;48.150;17.142;2022-12-18T07:53:00;-0.70;92.70
12309;DHT22;6217;48.150;17.142;2022-12-18T07:57:09;-0.50;92.70
12309;DHT22;6217;48.150;17.142;2022-12-18T08:01:14;-0.30;92.60
12309;DHT22;6217;48.150;17.142;2022-12-18T08:05:21;-0.30;92.40
12309;DHT22;6217;48.150;17.142;2022-12-18T08:09:26;-0.30;92.30
12309;DHT22;6217;48.150;17.142;2022-12-18T08:13:32;-0.30;92.50
12309;DHT22;6217;48.150;17.142;2022-12-18T08:17:38;-0.10;92.80
12309;DHT22;6217;48.150;17.142;2022-12-18T08:21:44;0.10;92.40
12309;DHT22;6217;48.150;17.142;2022-12-18T08:25:49;0.10;92.50
12309;DHT22;6217;48.150;17.142;2022-12-18T08:29:57;0.40;92.10
12309;DHT22;6217;48.150;17.142;2022-12-18T08:34:03;0.50;92.30
12309;DHT22;6217;48.150;17.142;2022-12-18T08:38:08;0.70;92.00
12309;DHT22;6217;48.150;17.142;2022-12-18T08:42:14;0.80;92.00
12309;DHT22;6217;48.150;17.142;2022-12-18T08:46:41;1.00;91.90
12309;DHT22;6217;48.150;17.142;2022-12-18T08:50:59;1.10;91.70
12309;DHT22;6217;48.150;17.142;2022-12-18T08:55:06;1.20;91.60
12309;DHT22;6217;48.150;17.142;2022-12-18T08:59:11;1.20;91.80
12309;DHT22;6217;48.150;17.142;2022-12-18T09:03:18;1.40;91.80
12309;DHT22;6217;48.150;17.142;2022-12-18T09:07:24;1.50;91.50
12309;DHT22;6217;48.150;17.142;2022-12-18T09:11:31;1.50;91.60
12309;DHT22;6217;48.150;17.142;2022-12-18T09:15:45;1.60;91.60
12309;DHT22;6217;48.150;17.142;2022-12-18T09:19:51;1.70;91.70
12309;DHT22;6217;48.150;17.142;2022-12-18T09:23:57;1.60;91.50
12309;DHT22;6217;48.150;17.142;2022-12-18T09:28:10;1.60;91.60
12309;DHT22;6217;48.150;17.142;2022-12-18T09:32:16;1.60;91.40
12309;DHT22;6217;48.150;17.142;2022-12-18T09:36:22;1.50;91.30
12309;DHT22;6217;48.150;17.142;2022-12-18T09:40:35;1.50;91.50
12309;DHT22;6217;48.150;17.142;2022-12-18T09:44:43;1.60;91.30
12309;DHT22;6217;48.150;17.142;2022-12-18T09:48:52;1.70;91.30
12309;DHT22;6217;48.150;17.142;2022-12-18T09:53:04;1.80;91.10
12309;DHT22;6217;48.150;17.142;2022-12-18T09:57:22;1.90;91.00
12309;DHT22;6217;48.150;17.142;2022-12-18T10:01:30;1.90;90.90
12309;DHT22;6217;48.150;17.142;2022-12-18T10:05:50;1.90;90.90
12309;DHT22;6217;48.150;17.142;2022-12-18T10:14:39;2.00;91.00
12309;DHT22;6217;48.150;17.142;2022-12-18T10:23:28;2.40;90.70
12309;DHT22;6217;48.150;17.142;2022-12-18T10:27:36;2.30;90.40
12309;DHT22;6217;48.150;17.142;2022-12-18T10:31:42;2.20;90.50
12309;DHT22;6217;48.150;17.142;2022-12-18T10:35:50;2.30;90.60
12309;DHT22;6217;48.150;17.142;2022-12-18T10:40:09;2.40;90.50
12309;DHT22;6217;48.150;17.142;2022-12-18T10:44:20;2.40;90.40
12309;DHT22;6217;48.150;17.142;2022-12-18T10:48:28;2.50;90.60
12309;DHT22;6217;48.150;17.142;2022-12-18T10:52:34;2.60;90.50
12309;DHT22;6217;48.150;17.142;2022-12-18T10:56:41;2.60;90.60
12309;DHT22;6217;48.150;17.142;2022-12-18T11:01:11;2.80;90.60
12309;DHT22;6217;48.150;17.142;2022-12-18T11:05:28;3.00;90.40
12309;DHT22;6217;48.150;17.142;2022-12-18T11:09:36;3.00;90.20
12309;DHT22;6217;48.150;17.142;2022-12-18T11:13:55;2.90;90.20
12309;DHT22;6217;48.150;17.142;2022-12-18T11:18:03;2.90;90.60
12309;DHT22;6217;48.150;17.142;2022-12-18T11:22:33;3.10;90.40
12309;DHT22;6217;48.150;17.142;2022-12-18T11:26:40;2.90;90.20
12309;DHT22;6217;48.150;17.142;2022-12-18T11:30:48;2.90;90.00
12309;DHT22;6217;48.150;17.142;2022-12-18T11:35:21;2.70;90.20
12309;DHT22;6217;48.150;17.142;2022-12-18T11:39:42;2.80;90.20
12309;DHT22;6217;48.150;17.142;2022-12-18T11:43:55;2.70;90.30
12309;DHT22;6217;48.150;17.142;2022-12-18T11:48:18;2.80;90.30
12309;DHT22;6217;48.150;17.142;2022-12-18T11:52:38;3.00;90.30
12309;DHT22;6217;48.150;17.142;2022-12-18T11:57:14;3.20;90.00
12309;DHT22;6217;48.150;17.142;2022-12-18T12:06:09;3.00;90.20
12309;DHT22;6217;48.150;17.142;2022-12-18T12:10:27;3.00;90.10
12309;DHT22;6217;48.150;17.142;2022-12-18T12:14:57;3.20;90.20
12309;DHT22;6217;48.150;17.142;2022-12-18T12:19:21;3.50;90.00
12309;DHT22;6217;48.150;17.142;2022-12-18T12:28:22;3.50;89.30
12309;DHT22;6217;48.150;17.142;2022-12-18T12:37:03;3.10;89.90
12309;DHT22;6217;48.150;17.142;2022-12-18T12:41:15;3.00;90.00
12309;DHT22;6217;48.150;17.142;2022-12-18T12:45:55;2.90;90.00
12309;DHT22;6217;48.150;17.142;2022-12-18T12:50:14;2.70;89.80
12309;DHT22;6217;48.150;17.142;2022-12-18T12:54:23;2.60;90.10
12309;DHT22;6217;48.150;17.142;2022-12-18T13:02:56;2.30;90.10
12309;DHT22;6217;48.150;17.142;2022-12-18T13:07:21;2.20;90.10
12309;DHT22;6217;48.150;17.142;2022-12-18T13:11:42;2.20;90.10
12309;DHT22;6217;48.150;17.142;2022-12-18T13:16:07;2.10;90.20
12309;DHT22;6217;48.150;17.142;2022-12-18T13:20:15;2.10;90.10
12309;DHT22;6217;48.150;17.142;2022-12-18T13:24:30;2.20;89.80
12309;DHT22;6217;48.150;17.142;2022-12-18T13:37:41;1.90;90.30
12309;DHT22;6217;48.150;17.142;2022-12-18T13:46:44;2.10;90.10
12309;DHT22;6217;48.150;17.142;2022-12-18T13:55:10;2.00;90.00
12309;DHT22;6217;48.150;17.142;2022-12-18T13:59:22;1.80;90.10
12309;DHT22;6217;48.150;17.142;2022-12-18T14:03:29;1.90;90.10
12309;DHT22;6217;48.150;17.142;2022-12-18T14:07:36;1.90;90.30
12309;DHT22;6217;48.150;17.142;2022-12-18T14:11:47;1.90;90.30
12309;DHT22;6217;48.150;17.142;2022-12-18T14:15:54;1.80;90.10
12309;DHT22;6217;48.150;17.142;2022-12-18T14:20:01;1.70;90.10
12309;DHT22;6217;48.150;17.142;2022-12-18T14:24:20;1.60;90.20
12309;DHT22;6217;48.150;17.142;2022-12-18T14:28:27;1.60;90.40
12309;DHT22;6217;48.150;17.142;2022-12-18T14:32:33;1.60;90.50
12309;DHT22;6217;48.150;17.142;2022-12-18T14:36:51;1.60;90.30
12309;DHT22;6217;48.150;17.142;2022-12-18T14:41:02;1.60;90.20
12309;DHT22;6217;48.150;17.142;2022-12-18T14:49:46;1.30;90.30
12309;DHT22;6217;48.150;17.142;2022-12-18T14:54:00;1.30;90.60
12309;DHT22;6217;48.150;17.142;2022-12-18T14:58:12;1.20;90.70
12309;DHT22;6217;48.150;17.142;2022-12-18T15:02:25;1.20;90.70
12309;DHT22;6217;48.150;17.142;2022-12-18T15:06:34;1.10;90.80
12309;DHT22;6217;48.150;17.142;2022-12-18T15:10:47;1.10;90.80
12309;DHT22;6217;48.150;17.142;2022-12-18T15:14:58;1.00;90.90
12309;DHT22;6217;48.150;17.142;2022-12-18T15:19:03;0.90;91.00
12309;DHT22;6217;48.150;17.142;2022-12-18T15:23:26;0.90;91.10
12309;DHT22;6217;48.150;17.142;2022-12-18T15:27:36;0.90;91.10
12309;DHT22;6217;48.150;17.142;2022-12-18T15:32:01;0.80;91.20
12309;DHT22;6217;48.150;17.142;2022-12-18T15:36:12;0.80;91.20
12309;DHT22;6217;48.150;17.142;2022-12-18T15:40:20;0.70;91.30
12309;DHT22;6217;48.150;17.142;2022-12-18T15:44:29;0.70;91.40
12309;DHT22;6217;48.150;17.142;2022-12-18T15:48:39;0.70;91.30
12309;DHT22;6217;48.150;17.142;2022-12-18T15:52:48;0.70;91.40
12309;DHT22;6217;48.150;17.142;2022-12-18T15:56:55;0.70;91.40
12309;DHT22;6217;48.150;17.142;2022-12-18T16:01:20;0.60;91.50
12309;DHT22;6217;48.150;17.142;2022-12-18T16:05:28;0.70;91.60
12309;DHT22;6217;48.150;17.142;2022-12-18T16:09:34;0.70;91.50
12309;DHT22;6217;48.150;17.142;2022-12-18T16:13:39;0.80;91.60
12309;DHT22;6217;48.150;17.142;2022-12-18T16:17:46;0.90;91.50
12309;DHT22;6217;48.150;17.142;2022-12-18T16:21:59;0.90;91.50
12309;DHT22;6217;48.150;17.142;2022-12-18T16:26:05;0.80;91.50
12309;DHT22;6217;48.150;17.142;2022-12-18T16:30:22;0.80;91.60
12309;DHT22;6217;48.150;17.142;2022-12-18T16:34:37;0.80;91.60
12309;DHT22;6217;48.150;17.142;2022-12-18T16:38:42;0.80;91.60
12309;DHT22;6217;48.150;17.142;2022-12-18T16:42:48;0.70;91.60
12309;DHT22;6217;48.150;17.142;2022-12-18T16:46:54;0.70;92.00
12309;DHT22;6217;48.150;17.142;2022-12-18T16:51:04;0.70;91.80
12309;DHT22;6217;48.150;17.142;2022-12-18T16:55:13;0.70;91.70
12309;DHT22;6217;48.150;17.142;2022-12-18T16:59:19;0.70;91.70
12309;DHT22;6217;48.150;17.142;2022-12-18T17:03:25;0.70;91.70
12309;DHT22;6217;48.150;17.142;2022-12-18T17:07:32;0.80;91.80
12309;DHT22;6217;48.150;17.142;2022-12-18T17:11:38;0.90;91.80
12309;DHT22;6217;48.150;17.142;2022-12-18T17:15:44;1.00;91.60
12309;DHT22;6217;48.150;17.142;2022-12-18T17:19:50;1.00;91.70
12309;DHT22;6217;48.150;17.142;2022-12-18T17:24:00;1.10;91.70
12309;DHT22;6217;48.150;17.142;2022-12-18T17:28:06;1.10;91.40
12309;DHT22;6217;48.150;17.142;2022-12-18T17:32:12;1.00;91.50
12309;DHT22;6217;48.150;17.142;2022-12-18T17:36:20;0.90;91.50
12309;DHT22;6217;48.150;17.142;2022-12-18T17:40:26;0.80;91.80
12309;DHT22;6217;48.150;17.142;2022-12-18T17:44:31;0.80;91.70
12309;DHT22;6217;48.150;17.142;2022-12-18T17:48:38;0.60;91.60
12309;DHT22;6217;48.150;17.142;2022-12-18T17:52:45;0.60;91.70
12309;DHT22;6217;48.150;17.142;2022-12-18T17:56:50;0.50;91.80
12309;DHT22;6217;48.150;17.142;2022-12-18T18:00:58;0.40;92.00
12309;DHT22;6217;48.150;17.142;2022-12-18T18:05:04;0.40;92.10
12309;DHT22;6217;48.150;17.142;2022-12-18T18:09:09;0.50;92.00
12309;DHT22;6217;48.150;17.142;2022-12-18T18:13:21;0.30;92.00
12309;DHT22;6217;48.150;17.142;2022-12-18T18:17:47;0.30;92.10
12309;DHT22;6217;48.150;17.142;2022-12-18T18:21:53;0.30;92.10
12309;DHT22;6217;48.150;17.142;2022-12-18T18:26:07;0.30;92.20
12309;DHT22;6217;48.150;17.142;2022-12-18T18:30:13;0.30;92.30
12309;DHT22;6217;48.150;17.142;2022-12-18T18:34:21;0.30;92.20
12309;DHT22;6217;48.150;17.142;2022-12-18T18:38:30;0.30;92.20
12309;DHT22;6217;48.150;17.142;2022-12-18T18:42:36;0.40;92.20
12309;DHT22;6217;48.150;17.142;2022-12-18T18:46:42;0.30;92.20
12309;DHT22;6217;48.150;17.142;2022-12-18T18:51:02;0.30;92.40
12309;DHT22;6217;48.150;17.142;2022-12-18T18:55:09;0.20;92.30
12309;DHT22;6217;48.150;17.142;2022-12-18T18:59:15;0.30;92.40
12309;DHT22;6217;48.150;17.142;2022-12-18T19:03:21;0.30;92.40
12309;DHT22;6217;48.150;17.142;2022-12-18T19:07:26;0.30;92.40
12309;DHT22;6217;48.150;17.142;2022-12-18T19:11:32;0.30;92.40
12309;DHT22;6217;48.150;17.142;2022-12-18T19:16:05;0.20;92.30
12309;DHT22;6217;48.150;17.142;2022-12-18T19:20:11;0.20;92.40
12309;DHT22;6217;48.150;17.142;2022-12-18T19:24:17;0.10;92.40
12309;DHT22;6217;48.150;17.142;2022-12-18T19:28:23;0.20;92.50
12309;DHT22;6217;48.150;17.142;2022-12-18T19:32:33;0.20;92.50
12309;DHT22;6217;48.150;17.142;2022-12-18T19:36:39;0.20;92.40
12309;DHT22;6217;48.150;17.142;2022-12-18T19:40:45;0.20;92.40
12309;DHT22;6217;48.150;17.142;2022-12-18T19:44:51;0.20;92.40
12309;DHT22;6217;48.150;17.142;2022-12-18T19:48:58;0.20;92.50
12309;DHT22;6217;48.150;17.142;2022-12-18T19:53:04;0.20;92.50
12309;DHT22;6217;48.150;17.142;2022-12-18T19:57:10;0.20;92.50
12309;DHT22;6217;48.150;17.142;2022-12-18T20:01:18;0.10;92.50
12309;DHT22;6217;48.150;17.142;2022-12-18T20:05:24;0.00;92.60
12309;DHT22;6217;48.150;17.142;2022-12-18T20:09:32;0.00;92.70
12309;DHT22;6217;48.150;17.142;2022-12-18T20:13:38;0.00;92.70
12309;DHT22;6217;48.150;17.142;2022-12-18T20:17:44;0.00;92.70
12309;DHT22;6217;48.150;17.142;2022-12-18T20:21:50;0.00;92.70
12309;DHT22;6217;48.150;17.142;2022-12-18T20:25:56;-0.10;92.60
12309;DHT22;6217;48.150;17.142;2022-12-18T20:30:02;-0.20;92.80
12309;DHT22;6217;48.150;17.142;2022-12-18T20:34:07;-0.30;92.90
12309;DHT22;6217;48.150;17.142;2022-12-18T20:38:13;-0.40;93.00
12309;DHT22;6217;48.150;17.142;2022-12-18T20:42:21;-0.50;93.40
12309;DHT22;6217;48.150;17.142;2022-12-18T20:46:27;-0.70;93.20
12309;DHT22;6217;48.150;17.142;2022-12-18T20:50:33;-0.80;93.30
12309;DHT22;6217;48.150;17.142;2022-12-18T20:54:39;-0.80;93.40
12309;DHT22;6217;48.150;17.142;2022-12-18T20:58:45;-0.90;93.40
12309;DHT22;6217;48.150;17.142;2022-12-18T21:02:51;-1.00;93.50
12309;DHT22;6217;48.150;17.142;2022-12-18T21:06:57;-1.00;93.60
12309;DHT22;6217;48.150;17.142;2022-12-18T21:15:41;-1.10;93.70
12309;DHT22;6217;48.150;17.142;2022-12-18T21:19:47;-1.20;93.60
12309;DHT22;6217;48.150;17.142;2022-12-18T21:23:53;-1.30;93.70
12309;DHT22;6217;48.150;17.142;2022-12-18T21:27:58;-1.30;93.60
12309;DHT22;6217;48.150;17.142;2022-12-18T21:32:08;-1.30;93.70
12309;DHT22;6217;48.150;17.142;2022-12-18T21:36:37;-1.40;93.70
12309;DHT22;6217;48.150;17.142;2022-12-18T21:40:46;-1.30;93.70
12309;DHT22;6217;48.150;17.142;2022-12-18T21:44:53;-1.40;93.70
12309;DHT22;6217;48.150;17.142;2022-12-18T21:48:59;-1.40;93.70
12309;DHT22;6217;48.150;17.142;2022-12-18T21:53:05;-1.40;93.80
12309;DHT22;6217;48.150;17.142;2022-12-18T21:57:11;-1.40;93.80
12309;DHT22;6217;48.150;17.142;2022-12-18T22:01:17;-1.40;93.80
12309;DHT22;6217;48.150;17.142;2022-12-18T22:05:23;-1.40;93.80
12309;DHT22;6217;48.150;17.142;2022-12-18T22:09:29;-1.30;93.70
12309;DHT22;6217;48.150;17.142;2022-12-18T22:13:35;-1.40;93.60
12309;DHT22;6217;48.150;17.142;2022-12-18T22:17:41;-1.50;93.80
12309;DHT22;6217;48.150;17.142;2022-12-18T22:21:53;-1.50;93.80
12309;DHT22;6217;48.150;17.142;2022-12-18T22:25:59;-1.50;93.80
12309;DHT22;6217;48.150;17.142;2022-12-18T22:30:05;-1.50;93.80
12309;DHT22;6217;48.150;17.142;2022-12-18T22:34:12;-1.50;93.80
12309;DHT22;6217;48.150;17.142;2022-12-18T22:38:18;-1.50;93.80
12309;DHT22;6217;48.150;17.142;2022-12-18T22:42:24;-1.60;93.70
12309;DHT22;6217;48.150;17.142;2022-12-18T22:46:32;-1.60;93.80
12309;DHT22;6217;48.150;17.142;2022-12-18T22:50:41;-1.70;93.80
12309;DHT22;6217;48.150;17.142;2022-12-18T22:54:47;-1.80;93.90
12309;DHT22;6217;48.150;17.142;2022-12-18T22:58:53;-1.80;94.00
12309;DHT22;6217;48.150;17.142;2022-12-18T23:03:06;-1.90;94.10
12309;DHT22;6217;48.150;17.142;2022-12-18T23:07:14;-1.80;94.20
12309;DHT22;6217;48.150;17.142;2022-12-18T23:11:25;-1.80;94.10
12309;DHT22;6217;48.150;17.142;2022-12-18T23:15:31;-1.80;94.10
12309;DHT22;6217;48.150;17.142;2022-12-18T23:19:36;-1.80;94.10
12309;DHT22;6217;48.150;17.142;2022-12-18T23:23:43;-1.80;94.10
12309;DHT22;6217;48.150;17.142;2022-12-18T23:27:58;-1.80;94.10
12309;DHT22;6217;48.150;17.142;2022-12-18T23:32:04;-1.80;94.20
12309;DHT22;6217;48.150;17.142;2022-12-18T23:36:16;-1.90;94.20
12309;DHT22;6217;48.150;17.142;2022-12-18T23:40:22;-1.90;94.20
12309;DHT22;6217;48.150;17.142;2022-12-18T23:44:28;-1.80;94.40
12309;DHT22;6217;48.150;17.142;2022-12-18T23:48:34;-1.90;94.30
12309;DHT22;6217;48.150;17.142;2022-12-18T23:52:39;-1.80;94.50
12309;DHT22;6217;48.150;17.142;2022-12-18T23:56:45;-1.80;94.30
